Time;durP1;ratioP1;P1;durP2;ratioP2;P2;SDS_P1;SDS_P2;PMS_P1;PMS_P2;Temp;Humidity;BMP_temperature;BMP_pressure;BME280_temperature;BME280_humidity;BME280_pressure;Samples;Min_cycle;Max_cycle;Signal;HPM_P1;HPM_P2
2023/04/22 00:02:45;;;;;;;4.63;3.20;;;;;;;;;;5003646;28;20178;-70
2023/04/22 00:05:49;;;;;;;6.53;3.37;;;;;;;;;;5015386;28;20178;-70
2023/04/22 00:08:53;;;;;;;6.20;3.20;;;;;;;;;;5014931;28;20308;-70
2023/04/22 00:11:57;;;;;;;6.63;3.20;;;;;;;;;;5002884;28;20228;-70
2023/04/22 00:15:02;;;;;;;8.20;3.30;;;;;;;;;;5002838;28;20178;-70
2023/04/22 00:18:12;;;;;;;4.27;3.00;;;;;;;;;;4991549;28;20532;-70
2023/04/22 00:21:16;;;;;;;5.30;3.20;;;;;;;;;;5002690;28;20213;-70
2023/04/22 00:24:20;;;;;;;5.60;3.30;;;;;;;;;;5015167;28;20185;-70
2023/04/22 00:27:24;;;;;;;8.20;3.30;;;;;;;;;;5014575;28;20173;-70
2023/04/22 00:30:30;;;;;;;4.57;2.90;;;;;;;;;;5014419;28;20197;-70
2023/04/22 00:33:34;;;;;;;4.90;3.37;;;;;;;;;;5002698;28;20194;-70
2023/04/22 00:36:38;;;;;;;8.87;3.20;;;;;;;;;;5014478;28;20185;-70
2023/04/22 00:39:42;;;;;;;6.90;3.20;;;;;;;;;;4991135;28;20181;-70
2023/04/22 00:42:49;;;;;;;12.23;3.33;;;;;;;;;;5002776;28;20193;-70
2023/04/22 00:45:52;;;;;;;5.20;3.50;;;;;;;;;;5002069;28;20660;-70
2023/04/22 00:48:57;;;;;;;3.50;3.20;;;;;;;;;;5002432;28;20181;-70
2023/04/22 00:52:02;;;;;;;6.03;3.60;;;;;;;;;;5014111;28;20221;-70
2023/04/22 00:55:07;;;;;;;6.77;3.20;;;;;;;;;;5001799;28;20201;-71
2023/04/22 00:58:11;;;;;;;9.40;3.37;;;;;;;;;;5008230;28;20185;-70
2023/04/22 01:01:16;;;;;;;6.20;3.50;;;;;;;;;;5014143;28;20692;-70
2023/04/22 01:04:21;;;;;;;4.97;2.90;;;;;;;;;;5002129;28;20193;-70
2023/04/22 01:07:26;;;;;;;7.57;3.63;;;;;;;;;;5001878;28;20181;-70
2023/04/22 01:10:30;;;;;;;5.50;3.00;;;;;;;;;;5002074;28;20178;-69
2023/04/22 01:13:35;;;;;;;9.23;3.63;;;;;;;;;;5014321;28;20177;-70
2023/04/22 01:16:39;;;;;;;6.43;3.23;;;;;;;;;;5014041;28;20628;-70
2023/04/22 01:19:44;;;;;;;6.37;3.30;;;;;;;;;;5001921;28;20185;-70
2023/04/22 01:22:49;;;;;;;12.87;3.90;;;;;;;;;;5001923;28;20177;-70
2023/04/22 01:25:54;;;;;;;4.93;3.40;;;;;;;;;;5018372;22;20165;-73
2023/04/22 01:29:00;;;;;;;6.13;3.27;;;;;;;;;;5033415;28;20201;-73
2023/04/22 01:32:04;;;;;;;6.33;3.20;;;;;;;;;;5021319;28;20220;-74
2023/04/22 01:35:09;;;;;;;7.97;3.80;;;;;;;;;;5021200;28;20204;-74
2023/04/22 01:38:13;;;;;;;6.30;3.67;;;;;;;;;;5021135;28;20567;-73
2023/04/22 01:41:17;;;;;;;8.20;3.80;;;;;;;;;;5021252;28;20212;-73
2023/04/22 01:44:21;;;;;;;9.97;3.80;;;;;;;;;;5009933;28;20181;-73
2023/04/22 01:47:27;;;;;;;7.67;4.07;;;;;;;;;;5032771;28;20177;-74
2023/04/22 01:50:31;;;;;;;14.27;3.90;;;;;;;;;;5021143;28;20641;-74
2023/04/22 01:53:35;;;;;;;7.97;3.57;;;;;;;;;;5021232;28;20169;-74
2023/04/22 01:56:42;;;;;;;5.93;4.00;;;;;;;;;;5021692;28;20288;-73
2023/04/22 01:59:47;;;;;;;7.20;4.13;;;;;;;;;;5021280;28;20177;-73
2023/04/22 02:02:52;;;;;;;7.73;3.83;;;;;;;;;;5009989;28;20197;-73
2023/04/22 02:05:56;;;;;;;6.40;4.07;;;;;;;;;;5021066;28;20647;-73
2023/04/22 02:09:00;;;;;;;9.37;4.00;;;;;;;;;;5021185;28;20187;-73
2023/04/22 02:12:05;;;;;;;8.67;4.10;;;;;;;;;;5020841;28;20224;-73
2023/04/22 02:15:09;;;;;;;6.27;4.30;;;;;;;;;;5020860;28;20188;-74
2023/04/22 02:18:13;;;;;;;8.43;4.27;;;;;;;;;;5033186;28;20180;-74
2023/04/22 02:21:19;;;;;;;7.27;4.43;;;;;;;;;;5020748;28;20212;-73
2023/04/22 02:24:23;;;;;;;5.63;3.83;;;;;;;;;;5020700;28;20632;-73
2023/04/22 02:27:28;;;;;;;6.53;3.83;;;;;;;;;;5009463;28;20679;-73
2023/04/22 02:30:32;;;;;;;6.17;4.10;;;;;;;;;;5009412;28;20180;-73
2023/04/22 02:33:36;;;;;;;8.57;3.73;;;;;;;;;;5009610;28;20208;-73
2023/04/22 02:36:40;;;;;;;7.13;3.80;;;;;;;;;;5032642;28;20247;-73
2023/04/22 02:39:44;;;;;;;8.20;4.00;;;;;;;;;;5020535;28;20569;-73
2023/04/22 02:42:48;;;;;;;10.83;4.20;;;;;;;;;;5020425;28;20197;-73
2023/04/22 02:45:52;;;;;;;5.40;3.60;;;;;;;;;;5020538;28;20181;-73
2023/04/22 02:48:56;;;;;;;5.33;3.83;;;;;;;;;;5020761;28;20177;-73
2023/04/22 02:52:00;;;;;;;6.00;4.03;;;;;;;;;;5020319;28;20221;-73
2023/04/22 02:55:05;;;;;;;7.50;3.83;;;;;;;;;;5020413;28;20189;-73
2023/04/22 02:58:09;;;;;;;6.93;4.10;;;;;;;;;;5032805;28;20628;-73
2023/04/22 03:01:13;;;;;;;11.37;4.40;;;;;;;;;;5012902;28;20217;-73
2023/04/22 03:04:20;;;;;;;10.13;4.33;;;;;;;;;;5001673;28;20173;-73
2023/04/22 03:07:25;;;;;;;9.03;4.30;;;;;;;;;;5012669;28;20185;-73
2023/04/22 03:10:29;;;;;;;8.80;4.23;;;;;;;;;;5024048;28;20525;-73
2023/04/22 03:13:33;;;;;;;9.40;3.90;;;;;;;;;;5023909;28;20205;-74
2023/04/22 03:16:37;;;;;;;6.57;4.30;;;;;;;;;;5012445;28;20632;-73
2023/04/22 03:19:43;;;;;;;7.97;4.33;;;;;;;;;;5023684;28;20196;-74
2023/04/22 03:22:47;;;;;;;9.40;4.40;;;;;;;;;;5023883;28;20521;-73
2023/04/22 03:25:52;;;;;;;6.90;4.60;;;;;;;;;;5012390;28;20181;-74
2023/04/22 03:28:56;;;;;;;5.83;3.83;;;;;;;;;;5023453;28;20200;-73
2023/04/22 03:32:01;;;;;;;10.20;4.40;;;;;;;;;;5023527;28;20221;-73
2023/04/22 03:35:05;;;;;;;6.83;4.20;;;;;;;;;;5023622;28;20185;-73
2023/04/22 03:38:10;;;;;;;5.20;4.50;;;;;;;;;;5023221;28;20192;-73
2023/04/22 03:41:15;;;;;;;4.63;3.90;;;;;;;;;;5023348;28;20220;-73
2023/04/22 03:44:23;;;;;;;6.20;4.23;;;;;;;;;;5012359;28;20188;-74
2023/04/22 03:47:28;;;;;;;9.43;4.70;;;;;;;;;;5001177;28;20181;-73
2023/04/22 03:50:39;;;;;;;6.70;4.40;;;;;;;;;;5023262;28;20213;-73
2023/04/22 03:53:43;;;;;;;8.17;4.17;;;;;;;;;;5023218;28;20208;-74
2023/04/22 03:56:51;;;;;;;6.93;4.23;;;;;;;;;;5023483;28;20204;-73
2023/04/22 03:59:57;;;;;;;5.60;4.43;;;;;;;;;;5022867;28;20181;-73
2023/04/22 04:03:01;;;;;;;6.20;4.27;;;;;;;;;;5011873;28;20197;-73
2023/04/22 04:06:05;;;;;;;7.13;4.57;;;;;;;;;;5022931;28;20173;-73
2023/04/22 04:09:09;;;;;;;7.90;4.80;;;;;;;;;;5011811;28;20181;-73
2023/04/22 04:12:14;;;;;;;7.57;4.47;;;;;;;;;;5022565;28;20216;-73
2023/04/22 04:15:21;;;;;;;7.93;4.70;;;;;;;;;;5012029;28;20185;-73
2023/04/22 04:18:28;;;;;;;6.57;4.43;;;;;;;;;;5022535;28;20185;-73
2023/04/22 04:21:35;;;;;;;6.87;4.50;;;;;;;;;;5011208;28;20208;-73
2023/04/22 04:24:40;;;;;;;11.10;4.77;;;;;;;;;;5022456;28;20173;-73
2023/04/22 04:27:50;;;;;;;8.53;4.33;;;;;;;;;;5022161;28;20192;-73
2023/04/22 04:30:54;;;;;;;7.73;4.37;;;;;;;;;;5010905;28;20216;-73
2023/04/22 04:34:00;;;;;;;8.07;4.37;;;;;;;;;;5022722;28;20224;-73
2023/04/22 04:37:04;;;;;;;7.33;4.50;;;;;;;;;;5022243;28;20648;-74
2023/04/22 04:40:17;;;;;;;8.67;4.80;;;;;;;;;;5022688;28;20181;-73
2023/04/22 04:43:36;;;;;;;6.00;4.17;;;;;;;;;;5001740;28;20513;-74
2023/04/22 04:46:57;;;;;;;6.53;4.47;;;;;;;;;;5011028;28;20181;-73
2023/04/22 04:50:03;;;;;;;7.77;4.40;;;;;;;;;;5021918;28;20548;-73
2023/04/22 04:53:08;;;;;;;13.77;4.63;;;;;;;;;;5022124;28;20201;-73
2023/04/22 04:56:16;;;;;;;6.20;4.13;;;;;;;;;;5034536;28;20181;-73
2023/04/22 04:59:20;;;;;;;8.33;4.30;;;;;;;;;;5010689;28;20624;-73
2023/04/22 05:02:25;;;;;;;7.30;4.50;;;;;;;;;;5010464;28;20213;-73
2023/04/22 05:05:29;;;;;;;5.60;4.60;;;;;;;;;;5010564;28;20185;-73
2023/04/22 05:08:34;;;;;;;5.30;4.43;;;;;;;;;;5010455;28;20192;-73
2023/04/22 05:11:43;;;;;;;9.23;3.93;;;;;;;;;;5021753;28;20220;-73
2023/04/22 05:14:57;;;;;;;5.30;4.10;;;;;;;;;;5021845;28;20639;-73
2023/04/22 05:18:01;;;;;;;7.70;4.67;;;;;;;;;;5021762;28;20184;-73
2023/04/22 05:21:06;;;;;;;8.47;4.20;;;;;;;;;;5021131;28;20220;-73
2023/04/22 05:24:11;;;;;;;9.07;5.87;;;;;;;;;;5010349;28;20177;-73
2023/04/22 05:27:17;;;;;;;13.47;8.73;;;;;;;;;;5021342;28;20204;-73
2023/04/22 05:30:21;;;;;;;8.97;6.07;;;;;;;;;;5021411;28;20177;-73
2023/04/22 05:33:25;;;;;;;10.63;5.37;;;;;;;;;;5021171;28;20548;-73
2023/04/22 05:36:30;;;;;;;8.20;5.33;;;;;;;;;;5010049;28;20177;-72
2023/04/22 05:39:35;;;;;;;11.20;6.17;;;;;;;;;;5021423;28;20185;-73
2023/04/22 05:42:43;;;;;;;9.13;5.13;;;;;;;;;;4999766;28;20177;-73
2023/04/22 05:45:49;;;;;;;7.83;4.30;;;;;;;;;;5021114;28;20631;-73
2023/04/22 05:48:55;;;;;;;7.47;5.27;;;;;;;;;;5021362;28;20177;-73
2023/04/22 05:52:19;;;;;;;13.03;9.43;;;;;;;;;;5033021;28;20216;-73
2023/04/22 05:55:34;;;;;;;15.57;10.57;;;;;;;;;;5020870;28;20196;-73
2023/04/22 05:58:39;;;;;;;10.57;5.50;;;;;;;;;;5021127;28;20204;-73
2023/04/22 06:01:48;;;;;;;7.60;4.30;;;;;;;;;;5010808;28;20213;-73
2023/04/22 06:04:56;;;;;;;7.70;3.93;;;;;;;;;;5021158;28;20169;-73
2023/04/22 06:08:00;;;;;;;7.60;4.03;;;;;;;;;;5020871;28;20180;-73
2023/04/22 06:11:04;;;;;;;8.73;4.40;;;;;;;;;;5020766;28;20576;-73
2023/04/22 06:14:12;;;;;;;10.03;5.03;;;;;;;;;;5021041;28;20212;-73
2023/04/22 06:17:17;;;;;;;9.73;4.40;;;;;;;;;;5020798;28;20181;-73
2023/04/22 06:20:21;;;;;;;6.23;4.20;;;;;;;;;;5032780;28;20250;-73
2023/04/22 06:23:25;;;;;;;8.33;4.67;;;;;;;;;;5020719;28;20169;-73
2023/04/22 06:26:29;;;;;;;8.07;4.90;;;;;;;;;;5020536;28;20204;-73
2023/04/22 06:29:34;;;;;;;9.03;6.40;;;;;;;;;;5020806;28;20185;-73
2023/04/22 06:32:38;;;;;;;8.03;5.20;;;;;;;;;;5009823;28;20675;-73
2023/04/22 06:35:42;;;;;;;8.93;5.10;;;;;;;;;;5024496;28;20185;-73
2023/04/22 06:38:46;;;;;;;10.70;4.37;;;;;;;;;;5024659;28;20181;-73
2023/04/22 06:42:08;;;;;;;6.03;3.80;;;;;;;;;;5036611;28;20216;-73
2023/04/22 06:45:25;;;;;;;6.23;4.20;;;;;;;;;;5013147;28;20525;-73
2023/04/22 06:48:48;;;;;;;5.57;3.43;;;;;;;;;;5024607;28;20185;-74
2023/04/22 06:52:20;;;;;;;11.03;3.70;;;;;;;;;;5024207;28;20224;-73
2023/04/22 06:55:25;;;;;;;9.53;3.80;;;;;;;;;;5013306;28;20640;-74
2023/04/22 06:58:29;;;;;;;4.40;3.03;;;;;;;;;;5024501;28;20180;-74
2023/04/22 07:01:34;;;;;;;6.10;3.70;;;;;;;;;;5013192;28;20212;-74
2023/04/22 07:04:38;;;;;;;5.13;3.50;;;;;;;;;;5024207;28;20173;-74
2023/04/22 07:07:43;;;;;;;6.17;3.53;;;;;;;;;;5024371;28;20185;-74
2023/04/22 07:10:56;;;;;;;3.83;2.50;;;;;;;;;;5024306;28;20212;-73
2023/04/22 07:14:12;;;;;;;4.17;2.63;;;;;;;;;;5023945;28;20208;-73
2023/04/22 07:17:20;;;;;;;10.93;2.80;;;;;;;;;;5023672;28;20520;-73
2023/04/22 07:20:24;;;;;;;7.33;2.83;;;;;;;;;;5023892;28;20529;-74
2023/04/22 07:23:28;;;;;;;5.87;3.53;;;;;;;;;;5012826;28;20177;-73
2023/04/22 07:26:33;;;;;;;4.93;3.00;;;;;;;;;;5035845;28;20200;-74
2023/04/22 07:29:37;;;;;;;5.57;3.30;;;;;;;;;;5035674;28;20185;-73
2023/04/22 07:32:41;;;;;;;6.17;3.03;;;;;;;;;;5023402;28;20212;-74
2023/04/22 07:35:46;;;;;;;3.00;2.80;;;;;;;;;;5035723;28;20627;-74
2023/04/22 07:38:49;;;;;;;6.53;2.87;;;;;;;;;;5023584;28;20181;-74
2023/04/22 07:41:56;;;;;;;3.63;2.60;;;;;;;;;;5035607;28;20216;-74
2023/04/22 07:45:00;;;;;;;3.83;2.60;;;;;;;;;;5034632;28;20624;-74
2023/04/22 07:48:04;;;;;;;6.30;3.00;;;;;;;;;;5023158;28;20177;-74
2023/04/22 07:51:08;;;;;;;3.13;2.57;;;;;;;;;;5023364;28;20212;-74
2023/04/22 07:54:12;;;;;;;3.40;2.43;;;;;;;;;;5035387;28;20213;-73
2023/04/22 07:57:20;;;;;;;5.23;2.40;;;;;;;;;;5035369;28;20185;-74
2023/04/22 08:00:24;;;;;;;3.47;2.30;;;;;;;;;;5035280;28;20180;-72
2023/04/22 08:03:28;;;;;;;3.80;2.40;;;;;;;;;;5023324;28;20169;-74
2023/04/22 08:06:32;;;;;;;3.53;2.70;;;;;;;;;;5011815;28;20560;-74
2023/04/22 08:09:36;;;;;;;7.43;4.20;;;;;;;;;;5035347;28;20196;-72
2023/04/22 08:12:41;;;;;;;4.17;2.57;;;;;;;;;;5035005;28;20701;-72
2023/04/22 08:15:46;;;;;;;4.23;2.60;;;;;;;;;;5011956;28;20181;-73
2023/04/22 08:18:51;;;;;;;4.70;2.53;;;;;;;;;;5034833;28;20173;-72
2023/04/22 08:21:55;;;;;;;2.27;1.93;;;;;;;;;;5034868;28;20212;-72
2023/04/22 08:24:59;;;;;;;3.13;1.77;;;;;;;;;;5034935;28;20177;-72
2023/04/22 08:28:04;;;;;;;3.07;1.50;;;;;;;;;;5034674;28;20663;-73
2023/04/22 08:31:09;;;;;;;2.20;1.70;;;;;;;;;;5034754;28;20212;-72
2023/04/22 08:34:13;;;;;;;2.77;1.53;;;;;;;;;;5037186;22;20571;-71
2023/04/22 08:37:17;;;;;;;3.13;1.30;;;;;;;;;;5022256;28;20188;-71
2023/04/22 08:40:21;;;;;;;1.57;1.37;;;;;;;;;;5034546;28;20177;-71
2023/04/22 08:43:25;;;;;;;1.73;1.50;;;;;;;;;;5011167;28;20181;-71
2023/04/22 08:46:30;;;;;;;1.53;1.30;;;;;;;;;;5022319;28;20186;-71
2023/04/22 08:49:35;;;;;;;8.03;1.60;;;;;;;;;;5035022;28;20181;-71
2023/04/22 08:52:41;;;;;;;2.07;1.57;;;;;;;;;;5021814;28;20221;-71
2023/04/22 08:55:45;;;;;;;2.73;1.60;;;;;;;;;;5034102;28;20167;-71
2023/04/22 08:58:51;;;;;;;3.10;1.90;;;;;;;;;;5034439;28;20184;-71
2023/04/22 09:01:57;;;;;;;1.97;1.60;;;;;;;;;;5033824;28;20219;-71
2023/04/22 09:05:04;;;;;;;2.13;1.60;;;;;;;;;;5034643;28;20182;-71
2023/04/22 09:08:10;;;;;;;2.33;1.60;;;;;;;;;;5034090;28;20545;-71
2023/04/22 09:11:15;;;;;;;1.53;1.40;;;;;;;;;;5033817;28;20219;-71
2023/04/22 09:14:21;;;;;;;1.80;1.43;;;;;;;;;;5033845;28;20670;-71
2023/04/22 09:17:33;;;;;;;1.93;1.60;;;;;;;;;;5021742;28;20188;-71
2023/04/22 09:20:41;;;;;;;3.23;1.47;;;;;;;;;;5033999;28;20222;-71
2023/04/22 09:23:50;;;;;;;3.00;1.67;;;;;;;;;;5033484;28;20662;-72
2023/04/22 09:26:56;;;;;;;2.27;1.20;;;;;;;;;;5021630;28;20182;-71
2023/04/22 09:30:00;;;;;;;2.33;1.70;;;;;;;;;;5021578;28;20171;-71
2023/04/22 09:33:06;;;;;;;1.93;1.60;;;;;;;;;;5010296;28;20203;-71
2023/04/22 09:36:10;;;;;;;1.90;1.50;;;;;;;;;;5033247;28;20538;-71
2023/04/22 09:39:14;;;;;;;1.63;1.30;;;;;;;;;;5033870;28;20183;-71
2023/04/22 09:42:19;;;;;;;1.20;1.00;;;;;;;;;;5033219;28;20220;-71
2023/04/22 09:45:31;;;;;;;2.30;1.25;;;;;;;;;;5033699;28;20183;-71
2023/04/22 09:48:41;;;;;;;2.97;1.40;;;;;;;;;;5033755;28;20187;-71
2023/04/22 09:51:45;;;;;;;2.25;1.20;;;;;;;;;;5021502;28;20219;-71
2023/04/22 09:54:53;;;;;;;1.50;1.40;;;;;;;;;;5021403;28;20221;-71
2023/04/22 09:58:07;;;;;;;2.95;1.25;;;;;;;;;;5021432;28;20214;-71
2023/04/22 10:01:12;;;;;;;2.03;1.20;;;;;;;;;;5020942;28;20213;-71
2023/04/22 10:04:20;;;;;;;2.00;1.10;;;;;;;;;;5033691;28;20174;-71
2023/04/22 10:07:30;;;;;;;2.30;1.25;;;;;;;;;;5032966;28;20194;-72
2023/04/22 10:10:35;;;;;;;2.60;1.50;;;;;;;;;;5025232;28;20509;-71
2023/04/22 10:13:39;;;;;;;2.95;1.63;;;;;;;;;;5002946;28;20187;-71
2023/04/22 10:16:45;;;;;;;1.70;1.27;;;;;;;;;;5013728;28;20189;-71
2023/04/22 10:19:50;;;;;;;2.65;1.45;;;;;;;;;;5036918;28;20210;-71
2023/04/22 10:22:55;;;;;;;1.98;1.60;;;;;;;;;;5037147;28;20176;-71
2023/04/22 10:25:59;;;;;;;5.20;1.60;;;;;;;;;;5024959;28;20179;-71
2023/04/22 10:29:11;;;;;;;1.42;1.30;;;;;;;;;;5036974;28;20187;-71
2023/04/22 10:32:18;;;;;;;2.28;1.75;;;;;;;;;;5037102;28;20682;-71
2023/04/22 10:35:28;;;;;;;3.17;1.63;;;;;;;;;;5024414;28;20691;-71
2023/04/22 10:38:54;;;;;;;3.33;1.30;;;;;;;;;;5025115;28;20188;-71
2023/04/22 10:42:01;;;;;;;1.48;1.38;;;;;;;;;;5024828;28;20693;-71
2023/04/22 10:45:06;;;;;;;1.95;1.10;;;;;;;;;;5037161;28;20192;-72
2023/04/22 10:48:12;;;;;;;1.48;1.20;;;;;;;;;;5024758;28;20182;-71
2023/04/22 10:51:42;;;;;;;2.60;1.30;;;;;;;;;;5036781;28;20564;-71
2023/04/22 10:54:49;;;;;;;1.02;0.93;;;;;;;;;;5036575;28;20207;-71
2023/04/22 10:57:53;;;;;;;2.72;1.40;;;;;;;;;;5024383;28;20630;-71
2023/04/22 11:01:01;;;;;;;1.73;1.35;;;;;;;;;;5036474;28;20216;-71
2023/04/22 11:04:21;;;;;;;1.75;1.10;;;;;;;;;;5036714;28;20181;-72
2023/04/22 11:07:26;;;;;;;2.47;1.00;;;;;;;;;;5036279;28;20190;-71
2023/04/22 11:10:50;;;;;;;1.45;1.10;;;;;;;;;;5013100;28;20184;-71
2023/04/22 11:13:54;;;;;;;2.35;1.17;;;;;;;;;;5036393;28;20180;-72
2023/04/22 11:16:58;;;;;;;1.90;1.30;;;;;;;;;;5023923;28;20186;-71
2023/04/22 11:20:04;;;;;;;1.67;1.27;;;;;;;;;;5035054;28;20191;-72
2023/04/22 11:23:08;;;;;;;1.63;1.25;;;;;;;;;;5024241;28;20173;-71
2023/04/22 11:26:12;;;;;;;1.60;1.35;;;;;;;;;;5035880;28;20184;-72
2023/04/22 11:29:16;;;;;;;1.98;1.35;;;;;;;;;;5035693;28;20200;-72
2023/04/22 11:32:20;;;;;;;3.55;1.70;;;;;;;;;;5035864;28;20215;-72
2023/04/22 11:35:26;;;;;;;1.25;1.10;;;;;;;;;;5035650;28;20223;-71
2023/04/22 11:38:30;;;;;;;3.83;1.40;;;;;;;;;;5023560;28;20299;-71
2023/04/22 11:41:34;;;;;;;5.07;1.35;;;;;;;;;;5035360;28;20689;-72
2023/04/22 11:44:39;;;;;;;2.17;1.30;;;;;;;;;;5035941;28;20177;-72
2023/04/22 11:47:46;;;;;;;1.77;1.17;;;;;;;;;;5023757;28;20186;-72
2023/04/22 11:51:08;;;;;;;8.77;1.95;;;;;;;;;;5035231;28;20224;-72
2023/04/22 11:54:12;;;;;;;4.60;1.40;;;;;;;;;;5035901;28;20619;-72
2023/04/22 11:57:17;;;;;;;1.73;1.30;;;;;;;;;;5023220;28;20187;-72
2023/04/22 12:00:24;;;;;;;3.53;1.40;;;;;;;;;;5023310;28;20188;-72
2023/04/22 12:03:29;;;;;;;1.40;1.30;;;;;;;;;;5035340;28;20186;-73
2023/04/22 12:06:34;;;;;;;3.35;1.40;;;;;;;;;;5023055;28;20182;-72
2023/04/22 12:09:38;;;;;;;1.60;1.02;;;;;;;;;;5035328;28;20179;-73
2023/04/22 12:12:42;;;;;;;2.97;1.20;;;;;;;;;;5022638;28;20216;-73
2023/04/22 12:15:46;;;;;;;1.45;1.10;;;;;;;;;;5022819;28;20217;-73
2023/04/22 12:18:51;;;;;;;2.72;0.93;;;;;;;;;;5023085;28;20185;-73
2023/04/22 12:21:56;;;;;;;1.85;1.02;;;;;;;;;;5034980;28;20560;-72
2023/04/22 12:25:00;;;;;;;2.75;1.42;;;;;;;;;;5035159;28;20181;-72
2023/04/22 12:28:05;;;;;;;2.30;1.23;;;;;;;;;;5035346;28;20181;-72
2023/04/22 12:31:09;;;;;;;1.33;1.20;;;;;;;;;;5022227;28;20691;-73
2023/04/22 12:34:14;;;;;;;3.33;1.42;;;;;;;;;;5035046;28;20181;-73
2023/04/22 12:37:18;;;;;;;1.90;1.42;;;;;;;;;;5034371;28;20522;-73
2023/04/22 12:40:22;;;;;;;3.38;1.33;;;;;;;;;;5034485;28;20203;-73
2023/04/22 12:43:26;;;;;;;1.65;0.85;;;;;;;;;;5022602;28;20181;-73
2023/04/22 12:46:31;;;;;;;1.05;0.90;;;;;;;;;;5034661;28;20184;-73
2023/04/22 12:49:37;;;;;;;1.08;0.98;;;;;;;;;;5034442;28;20180;-73
2023/04/22 12:52:41;;;;;;;1.48;1.27;;;;;;;;;;5021584;28;20217;-72
2023/04/22 12:55:45;;;;;;;1.63;0.80;;;;;;;;;;5033775;28;20208;-73
2023/04/22 12:58:49;;;;;;;1.27;1.13;;;;;;;;;;5034403;28;20189;-73
2023/04/22 13:01:54;;;;;;;1.38;1.10;;;;;;;;;;5033774;28;20217;-73
2023/04/22 13:04:58;;;;;;;0.98;0.82;;;;;;;;;;5033762;28;20178;-72
2023/04/22 13:08:02;;;;;;;2.38;1.02;;;;;;;;;;5021539;28;20625;-72
2023/04/22 13:11:06;;;;;;;2.58;0.90;;;;;;;;;;5021517;28;20219;-73
2023/04/22 13:14:11;;;;;;;1.17;1.00;;;;;;;;;;5021635;28;20189;-72
2023/04/22 13:17:15;;;;;;;1.23;0.90;;;;;;;;;;5021619;28;20176;-72
2023/04/22 13:20:19;;;;;;;1.00;0.80;;;;;;;;;;5021594;28;20191;-71
2023/04/22 13:23:24;;;;;;;20.23;1.40;;;;;;;;;;5021410;28;20179;-71
2023/04/22 13:26:29;;;;;;;1.38;1.10;;;;;;;;;;5033774;28;20182;-72
2023/04/22 13:29:33;;;;;;;1.15;1.05;;;;;;;;;;5033744;28;20186;-72
2023/04/22 13:32:38;;;;;;;1.15;0.82;;;;;;;;;;5033566;28;20567;-72
2023/04/22 13:35:42;;;;;;;1.98;1.08;;;;;;;;;;5033244;28;20218;-73
2023/04/22 13:38:46;;;;;;;1.60;1.50;;;;;;;;;;5033900;28;20190;-72
2023/04/22 13:41:51;;;;;;;1.58;0.73;;;;;;;;;;5033349;28;20225;-72
2023/04/22 13:44:55;;;;;;;0.80;0.73;;;;;;;;;;5033370;28;20523;-72
2023/04/22 13:47:59;;;;;;;1.65;0.80;;;;;;;;;;5033465;28;20200;-72
2023/04/22 13:51:03;;;;;;;0.90;0.75;;;;;;;;;;5020932;28;20215;-73
2023/04/22 13:54:07;;;;;;;1.42;0.75;;;;;;;;;;5033159;28;20185;-72
2023/04/22 13:57:11;;;;;;;1.08;0.88;;;;;;;;;;5020993;28;20172;-72
2023/04/22 14:00:16;;;;;;;3.67;1.00;;;;;;;;;;5020948;28;20189;-72
2023/04/22 14:03:20;;;;;;;1.13;1.02;;;;;;;;;;5033541;28;20177;-72
2023/04/22 14:06:24;;;;;;;3.00;0.80;;;;;;;;;;5033308;28;20170;-72
2023/04/22 14:09:29;;;;;;;1.88;0.90;;;;;;;;;;5033297;28;20184;-72
2023/04/22 14:12:33;;;;;;;1.05;0.90;;;;;;;;;;5021034;28;20215;-72
2023/04/22 14:15:37;;;;;;;3.05;1.00;;;;;;;;;;5032954;28;20203;-72
2023/04/22 14:18:44;;;;;;;1.75;1.00;;;;;;;;;;5033739;28;20188;-72
2023/04/22 14:21:48;;;;;;;3.38;1.00;;;;;;;;;;5020692;28;20220;-72
2023/04/22 14:24:52;;;;;;;1.08;0.80;;;;;;;;;;5032883;28;20186;-72
2023/04/22 14:27:56;;;;;;;1.17;0.90;;;;;;;;;;5032794;28;20199;-72
2023/04/22 14:31:01;;;;;;;1.50;1.02;;;;;;;;;;5032754;28;20261;-72
2023/04/22 14:34:41;;;;;;;1.67;1.00;;;;;;;;;;5032907;28;20647;-72
2023/04/22 14:37:46;;;;;;;2.88;0.90;;;;;;;;;;5012044;28;20203;-75
2023/04/22 14:40:50;;;;;;;1.35;0.80;;;;;;;;;;5012849;28;20216;-75
2023/04/22 14:43:54;;;;;;;1.25;0.90;;;;;;;;;;5013226;28;20631;-74
2023/04/22 14:46:58;;;;;;;1.42;0.90;;;;;;;;;;5013212;28;20178;-74
2023/04/22 14:50:03;;;;;;;1.40;0.90;;;;;;;;;;5013208;28;20525;-74
2023/04/22 14:53:07;;;;;;;1.05;0.70;;;;;;;;;;5001145;28;20626;-75
2023/04/22 14:56:11;;;;;;;1.50;0.93;;;;;;;;;;5004908;28;20220;-74
2023/04/22 14:59:15;;;;;;;0.80;0.80;;;;;;;;;;4993837;28;20199;-74
2023/04/22 15:02:20;;;;;;;1.17;0.90;;;;;;;;;;5016575;28;20224;-73
2023/04/22 15:05:24;;;;;;;2.28;0.82;;;;;;;;;;5004625;28;20180;-74
2023/04/22 15:08:28;;;;;;;3.65;1.02;;;;;;;;;;5015818;28;20183;-73
2023/04/22 15:11:32;;;;;;;1.55;1.05;;;;;;;;;;5016137;28;20218;-73
2023/04/22 15:14:37;;;;;;;1.75;0.80;;;;;;;;;;5004129;28;20180;-74
2023/04/22 15:17:42;;;;;;;2.58;1.00;;;;;;;;;;5004319;28;20177;-73
2023/04/22 15:20:46;;;;;;;1.98;1.08;;;;;;;;;;5016228;28;20216;-74
2023/04/22 15:23:50;;;;;;;1.63;1.10;;;;;;;;;;5004267;28;20517;-73
2023/04/22 15:26:55;;;;;;;1.77;1.15;;;;;;;;;;5016604;28;20173;-74
2023/04/22 15:29:59;;;;;;;1.88;1.08;;;;;;;;;;5016123;28;20183;-74
2023/04/22 15:33:04;;;;;;;1.85;1.13;;;;;;;;;;5016155;28;20181;-74
2023/04/22 15:36:08;;;;;;;2.60;0.90;;;;;;;;;;5003594;28;20228;-74
2023/04/22 15:39:13;;;;;;;1.08;0.85;;;;;;;;;;5015742;28;20189;-74
2023/04/22 15:42:17;;;;;;;1.23;0.98;;;;;;;;;;5003679;28;20219;-74
2023/04/22 15:45:21;;;;;;;2.33;1.20;;;;;;;;;;5015674;28;20184;-73
2023/04/22 15:48:25;;;;;;;2.35;1.10;;;;;;;;;;5015542;28;20201;-74
2023/04/22 15:51:30;;;;;;;1.30;1.00;;;;;;;;;;5014737;28;20709;-73
2023/04/22 15:54:53;;;;;;;4.13;1.08;;;;;;;;;;5006324;28;20186;-73
2023/04/22 15:57:57;;;;;;;1.90;1.00;;;;;;;;;;5015405;28;20178;-73
2023/04/22 16:01:01;;;;;;;22.88;2.28;;;;;;;;;;5015265;28;20211;-73
2023/04/22 16:04:05;;;;;;;5.50;1.20;;;;;;;;;;5015554;28;20222;-73
2023/04/22 16:07:10;;;;;;;3.53;1.03;;;;;;;;;;5013915;28;20201;-73
2023/04/22 16:10:14;;;;;;;1.33;0.90;;;;;;;;;;5015152;28;20184;-73
2023/04/22 16:13:18;;;;;;;17.50;10.90;;;;;;;;;;5015628;28;20192;-73
2023/04/22 16:16:24;;;;;;;1.23;1.10;;;;;;;;;;5015133;28;20220;-73
2023/04/22 16:19:28;;;;;;;3.17;1.30;;;;;;;;;;5014956;28;20200;-73
2023/04/22 16:22:32;;;;;;;5.43;3.10;;;;;;;;;;5015076;28;20220;-73
2023/04/22 16:25:37;;;;;;;8.97;4.53;;;;;;;;;;5002879;28;20186;-73
2023/04/22 16:28:41;;;;;;;2.60;1.17;;;;;;;;;;5015116;28;20175;-73
2023/04/22 16:31:45;;;;;;;5.73;2.27;;;;;;;;;;5014960;28;20244;-73
2023/04/22 16:34:49;;;;;;;2.47;1.67;;;;;;;;;;5014538;28;20210;-73
2023/04/22 16:37:53;;;;;;;2.90;1.70;;;;;;;;;;5014657;28;20213;-73
2023/04/22 16:40:58;;;;;;;1.67;1.30;;;;;;;;;;5014781;28;20210;-73
2023/04/22 16:44:02;;;;;;;2.70;1.53;;;;;;;;;;5013974;28;20186;-73
2023/04/22 16:47:06;;;;;;;3.40;1.50;;;;;;;;;;5002754;28;20189;-74
2023/04/22 16:50:11;;;;;;;5.70;2.83;;;;;;;;;;5014419;28;20184;-74
2023/04/22 16:53:15;;;;;;;3.87;1.60;;;;;;;;;;5014679;28;20184;-74
2023/04/22 16:56:19;;;;;;;19.90;8.97;;;;;;;;;;5014256;28;20220;-73
2023/04/22 16:59:23;;;;;;;18.27;7.23;;;;;;;;;;5013557;28;20189;-74
2023/04/22 17:02:27;;;;;;;8.67;4.30;;;;;;;;;;5002370;28;20214;-74
2023/04/22 17:05:31;;;;;;;10.07;5.17;;;;;;;;;;5014700;28;20175;-74
2023/04/22 17:08:35;;;;;;;5.93;2.43;;;;;;;;;;5014364;28;20179;-73
2023/04/22 17:11:40;;;;;;;5.53;2.10;;;;;;;;;;5002034;28;20219;-73
2023/04/22 17:14:43;;;;;;;1.80;1.37;;;;;;;;;;5014108;28;20185;-73
2023/04/22 17:17:47;;;;;;;4.87;2.00;;;;;;;;;;5013354;28;20544;-73
2023/04/22 17:20:52;;;;;;;17.23;7.17;;;;;;;;;;5014060;28;20221;-73
2023/04/22 17:23:58;;;;;;;18.00;6.17;;;;;;;;;;5013878;28;20181;-73
2023/04/22 17:27:02;;;;;;;16.00;4.93;;;;;;;;;;5013786;28;20182;-73
2023/04/22 17:30:07;;;;;;;11.77;4.87;;;;;;;;;;5013771;28;20186;-73
2023/04/22 17:33:11;;;;;;;44.13;14.47;;;;;;;;;;5007658;28;20182;-73
2023/04/22 17:36:16;;;;;;;25.03;6.77;;;;;;;;;;5013485;28;20244;-73
2023/04/22 17:39:20;;;;;;;10.87;4.03;;;;;;;;;;5013847;28;20197;-73
2023/04/22 17:42:25;;;;;;;31.43;7.27;;;;;;;;;;5001309;28;20217;-73
2023/04/22 17:45:29;;;;;;;5.33;2.30;;;;;;;;;;5013314;28;20201;-73
2023/04/22 17:48:34;;;;;;;5.27;2.33;;;;;;;;;;5001392;28;20652;-73
2023/04/22 17:51:38;;;;;;;3.17;1.60;;;;;;;;;;5013275;28;20565;-73
2023/04/22 17:54:44;;;;;;;5.10;1.63;;;;;;;;;;5012961;28;20181;-73
2023/04/22 17:57:48;;;;;;;2.57;1.47;;;;;;;;;;5013584;28;20550;-73
2023/04/22 18:00:52;;;;;;;6.40;1.60;;;;;;;;;;5014034;28;20558;-72
2023/04/22 18:04:00;;;;;;;2.70;1.00;;;;;;;;;;5012835;28;20177;-74
2023/04/22 18:07:04;;;;;;;2.07;1.20;;;;;;;;;;5013454;28;20169;-73
2023/04/22 18:10:09;;;;;;;3.00;1.13;;;;;;;;;;5013436;28;20181;-73
2023/04/22 18:13:13;;;;;;;2.97;1.50;;;;;;;;;;5013499;28;20533;-73
2023/04/22 18:16:17;;;;;;;1.53;1.10;;;;;;;;;;5013070;28;20193;-73
2023/04/22 18:19:21;;;;;;;1.53;1.20;;;;;;;;;;5013570;28;20185;-72
2023/04/22 18:22:25;;;;;;;2.83;1.23;;;;;;;;;;5000986;28;20221;-73
2023/04/22 18:25:29;;;;;;;1.80;0.93;;;;;;;;;;5013121;28;20201;-72
2023/04/22 18:28:39;;;;;;;2.90;1.20;;;;;;;;;;5013439;28;20624;-72
2023/04/22 18:31:43;;;;;;;1.20;1.10;;;;;;;;;;5016967;28;20217;-73